sensor_id;sensor_type;location;lat;lon;timestamp;P1;durP1;ratioP1;P2;durP2;ratioP2
37355;SDS011;48747;50.250;18.848;2022-10-30T00:00:05;89.62;;;43.90;;
37355;SDS011;48747;50.250;18.848;2022-10-30T00:02:02;55.80;;;31.37;;
37355;SDS011;48747;50.250;18.848;2022-10-30T00:04:11;44.73;;;27.45;;
37355;SDS011;48747;50.250;18.848;2022-10-30T00:06:24;50.83;;;29.32;;
37355;SDS011;48747;50.250;18.848;2022-10-30T00:08:29;48.55;;;28.52;;
37355;SDS011;48747;50.250;18.848;2022-10-30T00:10:42;48.17;;;26.90;;
37355;SDS011;48747;50.250;18.848;2022-10-30T00:13:06;46.83;;;27.13;;
37355;SDS011;48747;50.250;18.848;2022-10-30T00:14:55;37.30;;;24.27;;
37355;SDS011;48747;50.250;18.848;2022-10-30T00:17:08;41.55;;;24.72;;
37355;SDS011;48747;50.250;18.848;2022-10-30T00:21:31;42.23;;;25.52;;
37355;SDS011;48747;50.250;18.848;2022-10-30T00:23:47;42.90;;;25.23;;
37355;SDS011;48747;50.250;18.848;2022-10-30T00:25:46;41.35;;;24.35;;
37355;SDS011;48747;50.250;18.848;2022-10-30T00:27:47;37.90;;;23.77;;
37355;SDS011;48747;50.250;18.848;2022-10-30T00:29:56;40.45;;;24.82;;
37355;SDS011;48747;50.250;18.848;2022-10-30T00:32:16;39.50;;;23.70;;
37355;SDS011;48747;50.250;18.848;2022-10-30T00:34:28;38.30;;;24.18;;
37355;SDS011;48747;50.250;18.848;2022-10-30T00:36:35;38.60;;;24.50;;
37355;SDS011;48747;50.250;18.848;2022-10-30T00:38:40;36.45;;;23.32;;
37355;SDS011;48747;50.250;18.848;2022-10-30T00:42:58;40.90;;;23.47;;
37355;SDS011;48747;50.250;18.848;2022-10-30T00:45:05;41.02;;;23.87;;
37355;SDS011;48747;50.250;18.848;2022-10-30T00:47:33;40.20;;;24.07;;
37355;SDS011;48747;50.250;18.848;2022-10-30T00:49:36;36.83;;;23.65;;
37355;SDS011;48747;50.250;18.848;2022-10-30T00:51:42;39.48;;;25.05;;
37355;SDS011;48747;50.250;18.848;2022-10-30T00:54:00;36.05;;;22.87;;
37355;SDS011;48747;50.250;18.848;2022-10-30T00:56:03;38.00;;;23.47;;
37355;SDS011;48747;50.250;18.848;2022-10-30T00:58:10;35.38;;;23.52;;
37355;SDS011;48747;50.250;18.848;2022-10-30T01:00:16;40.88;;;24.55;;
37355;SDS011;48747;50.250;18.848;2022-10-30T01:02:23;42.03;;;26.05;;
37355;SDS011;48747;50.250;18.848;2022-10-30T01:04:33;44.50;;;26.30;;
37355;SDS011;48747;50.250;18.848;2022-10-30T01:06:39;43.30;;;27.02;;
37355;SDS011;48747;50.250;18.848;2022-10-30T01:08:58;44.70;;;26.05;;
37355;SDS011;48747;50.250;18.848;2022-10-30T01:13:18;46.33;;;26.35;;
37355;SDS011;48747;50.250;18.848;2022-10-30T01:15:29;40.33;;;25.05;;
37355;SDS011;48747;50.250;18.848;2022-10-30T01:19:53;42.95;;;25.40;;
37355;SDS011;48747;50.250;18.848;2022-10-30T01:24:35;41.33;;;25.52;;
37355;SDS011;48747;50.250;18.848;2022-10-30T01:31:15;42.85;;;24.63;;
37355;SDS011;48747;50.250;18.848;2022-10-30T01:35:56;40.25;;;24.70;;
37355;SDS011;48747;50.250;18.848;2022-10-30T01:38:27;44.03;;;26.05;;
37355;SDS011;48747;50.250;18.848;2022-10-30T01:41:00;51.42;;;26.75;;
37355;SDS011;48747;50.250;18.848;2022-10-30T01:43:05;42.90;;;26.70;;
37355;SDS011;48747;50.250;18.848;2022-10-30T01:45:05;47.80;;;27.37;;
37355;SDS011;48747;50.250;18.848;2022-10-30T01:59:06;45.40;;;25.92;;
37355;SDS011;48747;50.250;18.848;2022-10-30T02:01:24;44.80;;;27.07;;
37355;SDS011;48747;50.250;18.848;2022-10-30T02:03:29;44.03;;;25.60;;
37355;SDS011;48747;50.250;18.848;2022-10-30T02:05:40;46.20;;;26.60;;
37355;SDS011;48747;50.250;18.848;2022-10-30T02:07:45;42.00;;;25.10;;
37355;SDS011;48747;50.250;18.848;2022-10-30T02:14:05;48.70;;;27.85;;
37355;SDS011;48747;50.250;18.848;2022-10-30T02:16:14;46.25;;;26.45;;
37355;SDS011;48747;50.250;18.848;2022-10-30T02:18:20;46.92;;;27.42;;
37355;SDS011;48747;50.250;18.848;2022-10-30T02:20:28;43.95;;;26.45;;
37355;SDS011;48747;50.250;18.848;2022-10-30T02:22:35;42.38;;;26.00;;
37355;SDS011;48747;50.250;18.848;2022-10-30T02:24:52;46.63;;;27.13;;
37355;SDS011;48747;50.250;18.848;2022-10-30T02:26:51;41.75;;;26.02;;
37355;SDS011;48747;50.250;18.848;2022-10-30T02:28:58;43.13;;;26.23;;
37355;SDS011;48747;50.250;18.848;2022-10-30T02:31:05;42.35;;;26.85;;
37355;SDS011;48747;50.250;18.848;2022-10-30T02:33:17;50.10;;;27.52;;
37355;SDS011;48747;50.250;18.848;2022-10-30T02:35:31;45.75;;;27.82;;
37355;SDS011;48747;50.250;18.848;2022-10-30T02:37:41;44.23;;;26.82;;
37355;SDS011;48747;50.250;18.848;2022-10-30T02:39:34;50.08;;;28.05;;
37355;SDS011;48747;50.250;18.848;2022-10-30T02:41:41;47.70;;;28.35;;
37355;SDS011;48747;50.250;18.848;2022-10-30T02:43:49;46.92;;;26.77;;
37355;SDS011;48747;50.250;18.848;2022-10-30T02:46:13;52.80;;;29.32;;
37355;SDS011;48747;50.250;18.848;2022-10-30T02:48:06;49.60;;;28.70;;
37355;SDS011;48747;50.250;18.848;2022-10-30T02:50:24;47.60;;;27.93;;
37355;SDS011;48747;50.250;18.848;2022-10-30T02:52:33;48.58;;;28.77;;
37355;SDS011;48747;50.250;18.848;2022-10-30T02:54:44;47.53;;;27.82;;
37355;SDS011;48747;50.250;18.848;2022-10-30T02:56:42;47.95;;;27.87;;
37355;SDS011;48747;50.250;18.848;2022-10-30T02:59:04;45.92;;;26.65;;
37355;SDS011;48747;50.250;18.848;2022-10-30T03:03:27;49.67;;;28.47;;
37355;SDS011;48747;50.250;18.848;2022-10-30T03:05:30;47.13;;;28.12;;
37355;SDS011;48747;50.250;18.848;2022-10-30T03:07:36;46.98;;;26.93;;
37355;SDS011;48747;50.250;18.848;2022-10-30T03:09:42;44.20;;;27.13;;
37355;SDS011;48747;50.250;18.848;2022-10-30T03:11:53;48.17;;;26.73;;
37355;SDS011;48747;50.250;18.848;2022-10-30T03:13:59;47.65;;;27.45;;
37355;SDS011;48747;50.250;18.848;2022-10-30T03:18:24;44.10;;;25.00;;
37355;SDS011;48747;50.250;18.848;2022-10-30T03:20:45;43.02;;;24.95;;
37355;SDS011;48747;50.250;18.848;2022-10-30T03:22:44;38.85;;;23.32;;
37355;SDS011;48747;50.250;18.848;2022-10-30T03:24:50;37.73;;;23.60;;
37355;SDS011;48747;50.250;18.848;2022-10-30T03:27:01;36.40;;;24.00;;
37355;SDS011;48747;50.250;18.848;2022-10-30T03:29:01;41.00;;;24.50;;
37355;SDS011;48747;50.250;18.848;2022-10-30T03:31:11;40.92;;;24.60;;
37355;SDS011;48747;50.250;18.848;2022-10-30T03:33:22;40.40;;;23.98;;
37355;SDS011;48747;50.250;18.848;2022-10-30T03:35:24;39.33;;;22.55;;
37355;SDS011;48747;50.250;18.848;2022-10-30T03:37:33;40.23;;;24.82;;
37355;SDS011;48747;50.250;18.848;2022-10-30T03:39:41;40.67;;;24.65;;
37355;SDS011;48747;50.250;18.848;2022-10-30T03:41:44;41.28;;;24.82;;
37355;SDS011;48747;50.250;18.848;2022-10-30T03:43:50;43.45;;;26.10;;
37355;SDS011;48747;50.250;18.848;2022-10-30T03:46:01;44.67;;;25.97;;
37355;SDS011;48747;50.250;18.848;2022-10-30T03:48:08;48.80;;;27.73;;
37355;SDS011;48747;50.250;18.848;2022-10-30T03:50:10;46.42;;;26.80;;
37355;SDS011;48747;50.250;18.848;2022-10-30T03:52:17;50.00;;;28.12;;
37355;SDS011;48747;50.250;18.848;2022-10-30T03:54:24;51.55;;;28.57;;
37355;SDS011;48747;50.250;18.848;2022-10-30T03:56:32;48.48;;;28.15;;
37355;SDS011;48747;50.250;18.848;2022-10-30T03:58:45;49.13;;;28.90;;
37355;SDS011;48747;50.250;18.848;2022-10-30T04:00:49;46.88;;;28.35;;
37355;SDS011;48747;50.250;18.848;2022-10-30T04:02:53;51.83;;;29.77;;
37355;SDS011;48747;50.250;18.848;2022-10-30T04:05:00;52.83;;;29.05;;
37355;SDS011;48747;50.250;18.848;2022-10-30T04:07:06;47.30;;;28.07;;
37355;SDS011;48747;50.250;18.848;2022-10-30T04:11:37;51.70;;;28.05;;
37355;SDS011;48747;50.250;18.848;2022-10-30T04:13:32;52.03;;;27.52;;
37355;SDS011;48747;50.250;18.848;2022-10-30T04:15:36;47.33;;;25.97;;
37355;SDS011;48747;50.250;18.848;2022-10-30T04:19:53;45.12;;;26.15;;
37355;SDS011;48747;50.250;18.848;2022-10-30T04:21:59;48.60;;;26.55;;
37355;SDS011;48747;50.250;18.848;2022-10-30T04:24:05;48.00;;;26.70;;
37355;SDS011;48747;50.250;18.848;2022-10-30T04:26:12;44.45;;;27.30;;
37355;SDS011;48747;50.250;18.848;2022-10-30T04:30:29;50.05;;;26.97;;
37355;SDS011;48747;50.250;18.848;2022-10-30T04:32:36;49.63;;;28.35;;
37355;SDS011;48747;50.250;18.848;2022-10-30T04:34:41;45.52;;;26.95;;
37355;SDS011;48747;50.250;18.848;2022-10-30T04:36:47;45.15;;;27.30;;
37355;SDS011;48747;50.250;18.848;2022-10-30T04:40:59;44.10;;;26.33;;
37355;SDS011;48747;50.250;18.848;2022-10-30T04:43:10;44.98;;;27.10;;
37355;SDS011;48747;50.250;18.848;2022-10-30T04:45:30;43.63;;;27.35;;
37355;SDS011;48747;50.250;18.848;2022-10-30T04:47:26;43.78;;;26.15;;
37355;SDS011;48747;50.250;18.848;2022-10-30T04:49:29;43.85;;;24.92;;
37355;SDS011;48747;50.250;18.848;2022-10-30T04:51:49;41.15;;;25.08;;
37355;SDS011;48747;50.250;18.848;2022-10-30T04:53:47;47.35;;;25.80;;
37355;SDS011;48747;50.250;18.848;2022-10-30T04:55:52;40.98;;;24.95;;
37355;SDS011;48747;50.250;18.848;2022-10-30T05:00:10;47.90;;;26.60;;
37355;SDS011;48747;50.250;18.848;2022-10-30T05:02:26;46.35;;;27.00;;
37355;SDS011;48747;50.250;18.848;2022-10-30T05:06:28;52.62;;;29.63;;
37355;SDS011;48747;50.250;18.848;2022-10-30T05:08:36;51.20;;;27.37;;
37355;SDS011;48747;50.250;18.848;2022-10-30T05:10:57;49.50;;;27.87;;
37355;SDS011;48747;50.250;18.848;2022-10-30T05:12:50;57.20;;;30.97;;
37355;SDS011;48747;50.250;18.848;2022-10-30T05:14:55;55.17;;;29.02;;
37355;SDS011;48747;50.250;18.848;2022-10-30T05:17:06;54.38;;;28.27;;
37355;SDS011;48747;50.250;18.848;2022-10-30T05:19:33;53.25;;;29.18;;
37355;SDS011;48747;50.250;18.848;2022-10-30T05:21:26;54.70;;;28.47;;
37355;SDS011;48747;50.250;18.848;2022-10-30T05:23:30;55.17;;;30.08;;
37355;SDS011;48747;50.250;18.848;2022-10-30T05:25:40;50.83;;;28.12;;
37355;SDS011;48747;50.250;18.848;2022-10-30T05:27:45;53.83;;;28.57;;
37355;SDS011;48747;50.250;18.848;2022-10-30T05:29:50;51.73;;;30.27;;
37355;SDS011;48747;50.250;18.848;2022-10-30T05:32:01;60.73;;;31.73;;
37355;SDS011;48747;50.250;18.848;2022-10-30T05:33:59;61.23;;;30.97;;
37355;SDS011;48747;50.250;18.848;2022-10-30T05:36:10;52.90;;;27.22;;
37355;SDS011;48747;50.250;18.848;2022-10-30T05:38:27;60.33;;;30.25;;
37355;SDS011;48747;50.250;18.848;2022-10-30T05:40:24;56.77;;;30.92;;
37355;SDS011;48747;50.250;18.848;2022-10-30T05:42:30;66.20;;;31.93;;
37355;SDS011;48747;50.250;18.848;2022-10-30T05:44:30;58.65;;;30.27;;
37355;SDS011;48747;50.250;18.848;2022-10-30T05:46:36;63.52;;;31.17;;
37355;SDS011;48747;50.250;18.848;2022-10-30T05:50:54;61.45;;;29.98;;
37355;SDS011;48747;50.250;18.848;2022-10-30T05:53:01;60.70;;;31.02;;
37355;SDS011;48747;50.250;18.848;2022-10-30T05:55:11;54.58;;;29.70;;
37355;SDS011;48747;50.250;18.848;2022-10-30T05:57:14;51.25;;;29.10;;
37355;SDS011;48747;50.250;18.848;2022-10-30T05:59:20;58.05;;;30.65;;
37355;SDS011;48747;50.250;18.848;2022-10-30T06:01:27;66.82;;;33.50;;
37355;SDS011;48747;50.250;18.848;2022-10-30T06:03:46;62.60;;;33.42;;
37355;SDS011;48747;50.250;18.848;2022-10-30T06:05:38;62.43;;;33.70;;
37355;SDS011;48747;50.250;18.848;2022-10-30T06:07:42;68.83;;;36.08;;
37355;SDS011;48747;50.250;18.848;2022-10-30T06:09:47;64.65;;;36.65;;
37355;SDS011;48747;50.250;18.848;2022-10-30T06:12:06;65.42;;;34.98;;
37355;SDS011;48747;50.250;18.848;2022-10-30T06:14:00;65.70;;;36.15;;
37355;SDS011;48747;50.250;18.848;2022-10-30T06:16:03;67.42;;;35.50;;
37355;SDS011;48747;50.250;18.848;2022-10-30T06:18:14;69.47;;;35.30;;
37355;SDS011;48747;50.250;18.848;2022-10-30T06:20:18;68.02;;;35.13;;
37355;SDS011;48747;50.250;18.848;2022-10-30T06:22:22;70.67;;;35.45;;
37355;SDS011;48747;50.250;18.848;2022-10-30T06:24:27;68.57;;;34.95;;
37355;SDS011;48747;50.250;18.848;2022-10-30T06:26:37;73.57;;;35.90;;
37355;SDS011;48747;50.250;18.848;2022-10-30T06:28:44;76.30;;;35.15;;
37355;SDS011;48747;50.250;18.848;2022-10-30T06:31:03;56.25;;;30.77;;
37355;SDS011;48747;50.250;18.848;2022-10-30T06:32:59;65.57;;;33.30;;
37355;SDS011;48747;50.250;18.848;2022-10-30T06:35:04;75.17;;;36.58;;
37355;SDS011;48747;50.250;18.848;2022-10-30T06:37:13;70.35;;;35.48;;
37355;SDS011;48747;50.250;18.848;2022-10-30T06:39:16;70.80;;;35.15;;
37355;SDS011;48747;50.250;18.848;2022-10-30T06:41:30;66.70;;;34.35;;
37355;SDS011;48747;50.250;18.848;2022-10-30T06:43:32;60.67;;;32.00;;
37355;SDS011;48747;50.250;18.848;2022-10-30T06:45:35;69.42;;;33.88;;
37355;SDS011;48747;50.250;18.848;2022-10-30T06:47:38;69.22;;;33.92;;
37355;SDS011;48747;50.250;18.848;2022-10-30T06:49:41;62.58;;;33.35;;
37355;SDS011;48747;50.250;18.848;2022-10-30T06:51:48;62.70;;;34.55;;
37355;SDS011;48747;50.250;18.848;2022-10-30T06:53:53;68.15;;;34.92;;
37355;SDS011;48747;50.250;18.848;2022-10-30T06:55:58;61.53;;;33.85;;
37355;SDS011;48747;50.250;18.848;2022-10-30T06:58:04;75.20;;;35.00;;
37355;SDS011;48747;50.250;18.848;2022-10-30T07:00:09;70.75;;;36.58;;
37355;SDS011;48747;50.250;18.848;2022-10-30T07:02:14;70.28;;;36.42;;
37355;SDS011;48747;50.250;18.848;2022-10-30T07:04:22;56.08;;;32.60;;
37355;SDS011;48747;50.250;18.848;2022-10-30T07:06:32;75.22;;;36.68;;
37355;SDS011;48747;50.250;18.848;2022-10-30T07:08:42;62.65;;;34.43;;
37355;SDS011;48747;50.250;18.848;2022-10-30T07:10:54;73.80;;;35.38;;
37355;SDS011;48747;50.250;18.848;2022-10-30T07:13:04;66.67;;;34.90;;
37355;SDS011;48747;50.250;18.848;2022-10-30T07:15:13;71.87;;;37.73;;
37355;SDS011;48747;50.250;18.848;2022-10-30T07:17:12;68.62;;;37.58;;
37355;SDS011;48747;50.250;18.848;2022-10-30T07:21:28;72.00;;;37.25;;
37355;SDS011;48747;50.250;18.848;2022-10-30T07:23:35;72.22;;;37.95;;
37355;SDS011;48747;50.250;18.848;2022-10-30T07:25:38;66.82;;;37.67;;
37355;SDS011;48747;50.250;18.848;2022-10-30T07:30:00;68.67;;;37.67;;
37355;SDS011;48747;50.250;18.848;2022-10-30T07:32:04;68.83;;;37.05;;
37355;SDS011;48747;50.250;18.848;2022-10-30T07:34:21;64.58;;;36.68;;
37355;SDS011;48747;50.250;18.848;2022-10-30T07:36:19;66.97;;;35.40;;
37355;SDS011;48747;50.250;18.848;2022-10-30T07:38:29;71.72;;;35.88;;
37355;SDS011;48747;50.250;18.848;2022-10-30T07:40:37;76.62;;;38.53;;
37355;SDS011;48747;50.250;18.848;2022-10-30T07:42:43;76.53;;;39.35;;
37355;SDS011;48747;50.250;18.848;2022-10-30T07:44:48;75.15;;;40.70;;
37355;SDS011;48747;50.250;18.848;2022-10-30T07:49:01;75.50;;;40.15;;
37355;SDS011;48747;50.250;18.848;2022-10-30T07:51:12;73.42;;;41.68;;
37355;SDS011;48747;50.250;18.848;2022-10-30T07:55:49;82.12;;;42.23;;
37355;SDS011;48747;50.250;18.848;2022-10-30T07:57:39;70.00;;;38.42;;
37355;SDS011;48747;50.250;18.848;2022-10-30T07:59:45;73.33;;;40.70;;
37355;SDS011;48747;50.250;18.848;2022-10-30T08:01:51;70.17;;;38.20;;
37355;SDS011;48747;50.250;18.848;2022-10-30T08:04:00;77.92;;;41.33;;
37355;SDS011;48747;50.250;18.848;2022-10-30T08:06:08;74.05;;;40.67;;
37355;SDS011;48747;50.250;18.848;2022-10-30T08:08:22;73.05;;;39.25;;
37355;SDS011;48747;50.250;18.848;2022-10-30T08:10:25;71.97;;;40.83;;
37355;SDS011;48747;50.250;18.848;2022-10-30T08:12:30;74.90;;;39.18;;
37355;SDS011;48747;50.250;18.848;2022-10-30T08:16:57;79.80;;;41.60;;
37355;SDS011;48747;50.250;18.848;2022-10-30T08:19:02;70.03;;;40.15;;
37355;SDS011;48747;50.250;18.848;2022-10-30T08:21:07;72.58;;;40.05;;
37355;SDS011;48747;50.250;18.848;2022-10-30T08:23:20;74.95;;;41.18;;
37355;SDS011;48747;50.250;18.848;2022-10-30T08:25:18;71.67;;;41.80;;
37355;SDS011;48747;50.250;18.848;2022-10-30T08:27:36;71.67;;;42.15;;
37355;SDS011;48747;50.250;18.848;2022-10-30T08:29:32;71.92;;;40.52;;
37355;SDS011;48747;50.250;18.848;2022-10-30T08:31:41;69.65;;;40.40;;
37355;SDS011;48747;50.250;18.848;2022-10-30T08:33:46;73.30;;;40.90;;
37355;SDS011;48747;50.250;18.848;2022-10-30T08:35:59;72.90;;;40.23;;
37355;SDS011;48747;50.250;18.848;2022-10-30T08:38:03;71.15;;;39.30;;
37355;SDS011;48747;50.250;18.848;2022-10-30T08:40:10;69.53;;;39.88;;
37355;SDS011;48747;50.250;18.848;2022-10-30T08:44:47;64.75;;;39.03;;
37355;SDS011;48747;50.250;18.848;2022-10-30T08:46:43;68.30;;;40.23;;
37355;SDS011;48747;50.250;18.848;2022-10-30T08:48:52;62.65;;;39.05;;
37355;SDS011;48747;50.250;18.848;2022-10-30T08:51:19;67.58;;;37.55;;
37355;SDS011;48747;50.250;18.848;2022-10-30T08:53:16;59.88;;;37.30;;
37355;SDS011;48747;50.250;18.848;2022-10-30T08:55:19;67.60;;;38.98;;
37355;SDS011;48747;50.250;18.848;2022-10-30T08:57:37;64.03;;;39.45;;
37355;SDS011;48747;50.250;18.848;2022-10-30T08:59:34;69.40;;;38.95;;
37355;SDS011;48747;50.250;18.848;2022-10-30T09:01:44;64.25;;;39.05;;
37355;SDS011;48747;50.250;18.848;2022-10-30T09:03:52;57.75;;;35.92;;
37355;SDS011;48747;50.250;18.848;2022-10-30T09:08:12;64.30;;;36.60;;
37355;SDS011;48747;50.250;18.848;2022-10-30T09:14:37;61.73;;;37.35;;
37355;SDS011;48747;50.250;18.848;2022-10-30T09:21:25;50.70;;;32.08;;
37355;SDS011;48747;50.250;18.848;2022-10-30T09:23:26;57.83;;;32.33;;
37355;SDS011;48747;50.250;18.848;2022-10-30T09:26:21;49.80;;;30.70;;
37355;SDS011;48747;50.250;18.848;2022-10-30T09:27:53;47.45;;;29.42;;
37355;SDS011;48747;50.250;18.848;2022-10-30T09:30:03;55.78;;;30.48;;
37355;SDS011;48747;50.250;18.848;2022-10-30T09:32:08;48.60;;;28.73;;
37355;SDS011;48747;50.250;18.848;2022-10-30T09:36:32;46.20;;;28.05;;
37355;SDS011;48747;50.250;18.848;2022-10-30T09:38:42;50.75;;;29.90;;
37355;SDS011;48747;50.250;18.848;2022-10-30T09:45:57;41.92;;;26.62;;
37355;SDS011;48747;50.250;18.848;2022-10-30T09:50:23;38.95;;;27.30;;
37355;SDS011;48747;50.250;18.848;2022-10-30T10:02:32;33.38;;;25.27;;
37355;SDS011;48747;50.250;18.848;2022-10-30T10:11:37;24.02;;;16.97;;
37355;SDS011;48747;50.250;18.848;2022-10-30T10:13:34;24.82;;;16.37;;
37355;SDS011;48747;50.250;18.848;2022-10-30T10:15:54;27.73;;;17.60;;
37355;SDS011;48747;50.250;18.848;2022-10-30T10:20:03;26.10;;;16.90;;
37355;SDS011;48747;50.250;18.848;2022-10-30T10:22:31;28.73;;;17.52;;
37355;SDS011;48747;50.250;18.848;2022-10-30T10:25:14;25.62;;;17.32;;
37355;SDS011;48747;50.250;18.848;2022-10-30T10:39:11;27.82;;;18.80;;
37355;SDS011;48747;50.250;18.848;2022-10-30T10:52:06;26.55;;;20.92;;
37355;SDS011;48747;50.250;18.848;2022-10-30T10:54:13;26.00;;;21.60;;
37355;SDS011;48747;50.250;18.848;2022-10-30T10:56:14;26.47;;;18.33;;
37355;SDS011;48747;50.250;18.848;2022-10-30T11:00:47;20.68;;;13.78;;
37355;SDS011;48747;50.250;18.848;2022-10-30T11:07:34;23.77;;;12.80;;
37355;SDS011;48747;50.250;18.848;2022-10-30T11:09:43;21.97;;;13.22;;
37355;SDS011;48747;50.250;18.848;2022-10-30T11:11:51;25.32;;;13.62;;
37355;SDS011;48747;50.250;18.848;2022-10-30T11:14:22;23.52;;;13.13;;
37355;SDS011;48747;50.250;18.848;2022-10-30T11:20:48;24.32;;;13.88;;
37355;SDS011;48747;50.250;18.848;2022-10-30T11:23:02;22.55;;;14.00;;
37355;SDS011;48747;50.250;18.848;2022-10-30T11:27:43;24.10;;;14.80;;
37355;SDS011;48747;50.250;18.848;2022-10-30T11:29:38;22.87;;;13.05;;
37355;SDS011;48747;50.250;18.848;2022-10-30T11:31:57;29.92;;;13.20;;
37355;SDS011;48747;50.250;18.848;2022-10-30T11:33:56;24.27;;;14.30;;
37355;SDS011;48747;50.250;18.848;2022-10-30T11:36:07;22.80;;;14.15;;
37355;SDS011;48747;50.250;18.848;2022-10-30T11:38:30;23.85;;;13.20;;
37355;SDS011;48747;50.250;18.848;2022-10-30T11:40:30;28.75;;;13.90;;
37355;SDS011;48747;50.250;18.848;2022-10-30T11:44:57;24.23;;;13.20;;
37355;SDS011;48747;50.250;18.848;2022-10-30T11:46:53;21.55;;;12.45;;
37355;SDS011;48747;50.250;18.848;2022-10-30T11:49:02;24.30;;;13.50;;
37355;SDS011;48747;50.250;18.848;2022-10-30T11:51:15;22.10;;;12.35;;
37355;SDS011;48747;50.250;18.848;2022-10-30T11:53:33;23.07;;;12.58;;
37355;SDS011;48747;50.250;18.848;2022-10-30T11:57:41;21.57;;;13.32;;
37355;SDS011;48747;50.250;18.848;2022-10-30T11:59:59;23.27;;;12.93;;
37355;SDS011;48747;50.250;18.848;2022-10-30T12:02:18;24.02;;;13.25;;
37355;SDS011;48747;50.250;18.848;2022-10-30T12:04:29;18.85;;;12.25;;
37355;SDS011;48747;50.250;18.848;2022-10-30T12:06:31;23.92;;;13.28;;
37355;SDS011;48747;50.250;18.848;2022-10-30T12:08:36;22.80;;;12.20;;
37355;SDS011;48747;50.250;18.848;2022-10-30T12:10:56;20.62;;;11.45;;
37355;SDS011;48747;50.250;18.848;2022-10-30T12:13:06;20.17;;;11.30;;
37355;SDS011;48747;50.250;18.848;2022-10-30T12:15:16;19.17;;;10.60;;
37355;SDS011;48747;50.250;18.848;2022-10-30T12:17:13;20.25;;;12.13;;
37355;SDS011;48747;50.250;18.848;2022-10-30T12:19:21;21.57;;;11.55;;
37355;SDS011;48747;50.250;18.848;2022-10-30T12:21:27;23.65;;;11.88;;
37355;SDS011;48747;50.250;18.848;2022-10-30T12:23:49;23.12;;;11.43;;
37355;SDS011;48747;50.250;18.848;2022-10-30T12:25:47;20.08;;;11.38;;
37355;SDS011;48747;50.250;18.848;2022-10-30T12:28:00;22.35;;;11.65;;
37355;SDS011;48747;50.250;18.848;2022-10-30T12:30:18;21.48;;;11.97;;
37355;SDS011;48747;50.250;18.848;2022-10-30T12:32:25;25.02;;;12.53;;
37355;SDS011;48747;50.250;18.848;2022-10-30T12:34:36;23.62;;;11.00;;
37355;SDS011;48747;50.250;18.848;2022-10-30T12:36:59;15.95;;;10.55;;
37355;SDS011;48747;50.250;18.848;2022-10-30T12:39:17;23.98;;;12.03;;
37355;SDS011;48747;50.250;18.848;2022-10-30T12:43:39;21.75;;;11.55;;
37355;SDS011;48747;50.250;18.848;2022-10-30T12:45:46;21.37;;;12.05;;
37355;SDS011;48747;50.250;18.848;2022-10-30T12:48:00;24.18;;;12.75;;
37355;SDS011;48747;50.250;18.848;2022-10-30T12:50:19;24.10;;;12.28;;
37355;SDS011;48747;50.250;18.848;2022-10-30T12:54:42;24.92;;;13.35;;
37355;SDS011;48747;50.250;18.848;2022-10-30T13:01:43;23.22;;;12.63;;
37355;SDS011;48747;50.250;18.848;2022-10-30T13:03:54;26.73;;;12.37;;
37355;SDS011;48747;50.250;18.848;2022-10-30T13:06:00;23.60;;;13.20;;
37355;SDS011;48747;50.250;18.848;2022-10-30T13:08:23;27.82;;;14.53;;
37355;SDS011;48747;50.250;18.848;2022-10-30T13:10:41;25.55;;;12.65;;
37355;SDS011;48747;50.250;18.848;2022-10-30T13:12:48;28.10;;;12.53;;
37355;SDS011;48747;50.250;18.848;2022-10-30T13:15:03;16.60;;;11.22;;
37355;SDS011;48747;50.250;18.848;2022-10-30T13:17:17;22.00;;;11.03;;
37355;SDS011;48747;50.250;18.848;2022-10-30T13:24:19;20.68;;;10.43;;
37355;SDS011;48747;50.250;18.848;2022-10-30T13:26:23;18.87;;;10.93;;
37355;SDS011;48747;50.250;18.848;2022-10-30T13:29:09;19.32;;;10.05;;
37355;SDS011;48747;50.250;18.848;2022-10-30T13:33:52;21.85;;;9.68;;
37355;SDS011;48747;50.250;18.848;2022-10-30T13:38:36;15.48;;;9.83;;
37355;SDS011;48747;50.250;18.848;2022-10-30T13:40:49;16.30;;;9.65;;
37355;SDS011;48747;50.250;18.848;2022-10-30T13:48:05;18.40;;;9.40;;
37355;SDS011;48747;50.250;18.848;2022-10-30T13:52:25;17.80;;;10.13;;
37355;SDS011;48747;50.250;18.848;2022-10-30T13:54:32;16.00;;;8.50;;
37355;SDS011;48747;50.250;18.848;2022-10-30T13:56:42;15.25;;;8.53;;
37355;SDS011;48747;50.250;18.848;2022-10-30T14:03:24;17.73;;;9.15;;
37355;SDS011;48747;50.250;18.848;2022-10-30T14:05:33;20.05;;;9.08;;
37355;SDS011;48747;50.250;18.848;2022-10-30T14:07:36;19.17;;;12.20;;
37355;SDS011;48747;50.250;18.848;2022-10-30T14:14:49;28.32;;;15.10;;
37355;SDS011;48747;50.250;18.848;2022-10-30T14:17:07;27.87;;;15.05;;
37355;SDS011;48747;50.250;18.848;2022-10-30T14:19:13;20.80;;;13.10;;
37355;SDS011;48747;50.250;18.848;2022-10-30T14:24:32;21.48;;;13.18;;
37355;SDS011;48747;50.250;18.848;2022-10-30T14:26:20;15.75;;;11.45;;
37355;SDS011;48747;50.250;18.848;2022-10-30T14:28:23;16.80;;;9.63;;
37355;SDS011;48747;50.250;18.848;2022-10-30T14:30:34;20.12;;;9.33;;
37355;SDS011;48747;50.250;18.848;2022-10-30T14:32:33;18.10;;;8.88;;
37355;SDS011;48747;50.250;18.848;2022-10-30T14:36:53;17.55;;;9.65;;
37355;SDS011;48747;50.250;18.848;2022-10-30T14:39:00;15.70;;;8.40;;
37355;SDS011;48747;50.250;18.848;2022-10-30T14:41:17;14.98;;;8.23;;
37355;SDS011;48747;50.250;18.848;2022-10-30T14:43:28;14.70;;;7.83;;
37355;SDS011;48747;50.250;18.848;2022-10-30T14:45:33;14.68;;;7.97;;
37355;SDS011;48747;50.250;18.848;2022-10-30T14:47:54;18.25;;;9.08;;
37355;SDS011;48747;50.250;18.848;2022-10-30T14:50:16;18.07;;;9.18;;
37355;SDS011;48747;50.250;18.848;2022-10-30T14:54:41;16.20;;;9.35;;
37355;SDS011;48747;50.250;18.848;2022-10-30T14:56:46;17.37;;;9.15;;
37355;SDS011;48747;50.250;18.848;2022-10-30T15:01:23;16.12;;;10.13;;
37355;SDS011;48747;50.250;18.848;2022-10-30T15:08:10;15.45;;;9.60;;
37355;SDS011;48747;50.250;18.848;2022-10-30T15:10:28;14.98;;;10.08;;
37355;SDS011;48747;50.250;18.848;2022-10-30T15:12:44;18.70;;;12.13;;
37355;SDS011;48747;50.250;18.848;2022-10-30T15:15:05;20.85;;;12.13;;
37355;SDS011;48747;50.250;18.848;2022-10-30T15:19:31;24.45;;;14.40;;
37355;SDS011;48747;50.250;18.848;2022-10-30T15:21:41;27.87;;;16.05;;
37355;SDS011;48747;50.250;18.848;2022-10-30T15:23:46;28.85;;;15.05;;
37355;SDS011;48747;50.250;18.848;2022-10-30T15:25:51;25.70;;;12.60;;
37355;SDS011;48747;50.250;18.848;2022-10-30T15:27:56;34.15;;;12.03;;
37355;SDS011;48747;50.250;18.848;2022-10-30T15:30:05;19.27;;;10.35;;
37355;SDS011;48747;50.250;18.848;2022-10-30T15:32:14;16.12;;;10.00;;
37355;SDS011;48747;50.250;18.848;2022-10-30T15:34:22;18.77;;;10.15;;
37355;SDS011;48747;50.250;18.848;2022-10-30T15:36:26;19.57;;;10.13;;
37355;SDS011;48747;50.250;18.848;2022-10-30T15:38:31;16.50;;;10.10;;
37355;SDS011;48747;50.250;18.848;2022-10-30T15:40:35;15.78;;;10.10;;